createdAt,value
2019-04-28T00:02:01.308Z,4.40
2019-04-28T00:04:32.099Z,5.90
2019-04-28T00:07:02.530Z,3.75
2019-04-28T00:09:31.963Z,3.42
2019-04-28T00:12:01.871Z,3.65
2019-04-28T00:14:31.779Z,5.20
2019-04-28T00:17:01.368Z,2.55
2019-04-28T00:19:31.939Z,4.03
2019-04-28T00:22:08.555Z,5.57
2019-04-28T00:24:41.471Z,5.92
2019-04-28T00:27:11.739Z,11.73
2019-04-28T00:29:46.043Z,6.45
2019-04-28T00:32:12.424Z,5.37
2019-04-28T00:34:41.966Z,11.00
2019-04-28T00:37:12.932Z,7.63
2019-04-28T00:39:42.315Z,4.33
2019-04-28T00:42:11.874Z,6.45
2019-04-28T00:44:43.457Z,8.03
2019-04-28T00:47:14.150Z,6.55
2019-04-28T00:49:46.560Z,8.10
2019-04-28T00:52:17.702Z,5.62
2019-04-28T00:54:47.488Z,9.13
2019-04-28T00:57:17.197Z,7.28
2019-04-28T00:59:56.802Z,11.73
2019-04-28T01:02:22.002Z,6.80
2019-04-28T01:04:53.100Z,8.55
2019-04-28T01:07:22.519Z,9.17
2019-04-28T01:09:51.880Z,13.98
2019-04-28T01:12:21.504Z,6.55
2019-04-28T01:14:52.895Z,9.78
2019-04-28T01:17:23.881Z,6.40
2019-04-28T01:20:00.782Z,8.80
2019-04-28T01:22:31.333Z,20.27
2019-04-28T01:25:00.695Z,7.62
2019-04-28T01:27:31.682Z,8.63
2019-04-28T01:30:10.626Z,8.03
2019-04-28T01:32:39.987Z,12.75
2019-04-28T01:35:09.738Z,7.65
2019-04-28T01:37:40.749Z,8.08
2019-04-28T01:40:11.272Z,7.45
2019-04-28T01:42:41.212Z,10.88
2019-04-28T01:45:10.874Z,12.33
2019-04-28T01:47:40.618Z,11.43
2019-04-28T01:50:10.395Z,12.98
2019-04-28T01:52:40.078Z,15.30
2019-04-28T01:55:10.117Z,10.80
2019-04-28T01:57:40.101Z,8.48
2019-04-28T02:00:22.861Z,8.87
2019-04-28T02:02:44.560Z,9.30
2019-04-28T02:05:14.754Z,11.23
2019-04-28T02:07:44.157Z,9.90
2019-04-28T02:10:13.771Z,18.92
2019-04-28T02:12:43.136Z,9.98
2019-04-28T02:15:12.564Z,20.90
2019-04-28T02:17:44.674Z,12.65
2019-04-28T02:22:50.004Z,8.80
2019-04-28T02:25:19.579Z,8.03
2019-04-28T02:27:50.315Z,8.25
2019-04-28T02:30:22.575Z,9.08
2019-04-28T02:32:53.187Z,9.57
2019-04-28T02:35:22.597Z,10.60
2019-04-28T02:37:52.014Z,13.72
2019-04-28T02:40:23.073Z,9.38
2019-04-28T02:42:52.476Z,9.70
2019-04-28T02:45:22.187Z,10.08
2019-04-28T02:47:53.272Z,11.50
2019-04-28T02:50:33.084Z,10.07
2019-04-28T02:53:04.399Z,10.23
2019-04-28T02:55:35.103Z,13.17
2019-04-28T02:58:04.598Z,11.33
2019-04-28T03:00:33.991Z,8.98
2019-04-28T03:03:03.330Z,10.40
2019-04-28T03:05:33.561Z,13.93
2019-04-28T03:08:03.384Z,17.23
2019-04-28T03:10:34.384Z,15.72
2019-04-28T03:13:03.877Z,10.30
2019-04-28T03:15:33.269Z,15.13
2019-04-28T03:18:03.759Z,11.65
2019-04-28T03:20:34.293Z,12.33
2019-04-28T03:23:03.699Z,11.80
2019-04-28T03:25:40.532Z,11.85
2019-04-28T03:28:13.082Z,16.48
2019-04-28T03:31:06.459Z,15.75
2019-04-28T03:33:37.945Z,17.00
2019-04-28T03:36:08.698Z,13.13
2019-04-28T03:38:36.483Z,9.83
2019-04-28T03:41:05.824Z,11.60
2019-04-28T03:43:35.160Z,13.40
2019-04-28T03:46:06.981Z,15.74
2019-04-28T03:48:36.316Z,11.73
2019-04-28T03:51:05.730Z,10.50
2019-04-28T03:53:35.151Z,10.58
2019-04-28T03:56:05.314Z,13.55
2019-04-28T03:58:34.682Z,8.93
2019-04-28T04:01:05.558Z,10.88
2019-04-28T04:03:35.002Z,15.17
2019-04-28T04:06:05.295Z,11.93
2019-04-28T04:08:34.757Z,15.23
2019-04-28T04:11:05.868Z,13.38
2019-04-28T04:13:37.831Z,11.75
2019-04-28T04:16:14.638Z,14.03
2019-04-28T04:18:54.616Z,13.58
2019-04-28T04:21:25.109Z,15.13
2019-04-28T04:23:54.445Z,9.13
2019-04-28T04:26:23.803Z,16.53
2019-04-28T04:28:53.155Z,13.28
2019-04-28T04:31:22.549Z,18.55
2019-04-28T04:33:51.964Z,10.72
2019-04-28T04:36:21.434Z,10.57
2019-04-28T04:38:51.488Z,13.80
2019-04-28T04:41:21.451Z,11.78
2019-04-28T04:43:51.648Z,15.70
2019-04-28T04:46:22.912Z,15.80
2019-04-28T04:48:54.099Z,12.30
2019-04-28T04:51:23.451Z,11.95
2019-04-28T04:53:52.807Z,11.63
2019-04-28T04:56:22.324Z,16.17
2019-04-28T04:58:51.748Z,12.75
2019-04-28T05:01:40.988Z,14.85
2019-04-28T05:04:21.758Z,12.25
2019-04-28T05:06:51.140Z,16.73
2019-04-28T05:09:20.483Z,13.70
2019-04-28T05:11:50.071Z,18.55
2019-04-28T05:14:19.967Z,13.65
2019-04-28T05:16:49.829Z,14.60
2019-04-28T05:19:19.887Z,14.40
2019-04-28T05:21:50.600Z,11.38
2019-04-28T05:24:21.631Z,13.88
2019-04-28T05:26:51.549Z,14.17
2019-04-28T05:29:26.647Z,12.87
2019-04-28T05:31:54.817Z,11.73
2019-04-28T05:34:24.352Z,10.37
2019-04-28T05:36:55.082Z,14.20
2019-04-28T05:39:24.420Z,9.93
2019-04-28T05:41:55.286Z,12.28
2019-04-28T05:44:24.629Z,11.00
2019-04-28T05:46:54.121Z,11.85
2019-04-28T05:49:29.713Z,11.88
2019-04-28T05:52:19.948Z,9.25
2019-04-28T05:54:52.924Z,12.43
2019-04-28T05:57:23.984Z,12.40
2019-04-28T05:59:55.054Z,14.20
2019-04-28T06:02:35.151Z,12.80
2019-04-28T06:05:05.864Z,14.75
2019-04-28T06:07:36.838Z,12.93
2019-04-28T06:10:07.069Z,11.50
2019-04-28T06:12:36.476Z,11.93
2019-04-28T06:15:11.760Z,14.87
2019-04-28T06:17:39.833Z,11.78
2019-04-28T06:20:11.562Z,12.45
2019-04-28T06:22:40.509Z,13.97
2019-04-28T06:25:10.003Z,14.23
2019-04-28T06:27:39.458Z,17.27
2019-04-28T06:30:10.170Z,13.40
2019-04-28T06:32:39.517Z,11.78
2019-04-28T06:35:09.018Z,12.18
2019-04-28T06:37:38.451Z,16.10
2019-04-28T06:40:08.240Z,12.28
2019-04-28T06:42:39.268Z,13.05
2019-04-28T06:45:08.776Z,14.43
2019-04-28T06:47:38.294Z,12.50
2019-04-28T06:50:07.720Z,20.20
2019-04-28T06:52:37.103Z,13.65
2019-04-28T06:55:07.186Z,11.35
2019-04-28T06:57:36.590Z,14.90
2019-04-28T07:00:07.600Z,13.35
2019-04-28T07:02:37.116Z,11.80
2019-04-28T07:05:08.616Z,14.45
2019-04-28T07:10:08.304Z,10.93
2019-04-28T07:12:37.750Z,11.43
2019-04-28T07:15:07.551Z,10.72
2019-04-28T07:17:36.958Z,9.33
2019-04-28T07:20:25.508Z,8.43
2019-04-28T07:22:54.938Z,15.25
2019-04-28T07:25:27.076Z,11.35
2019-04-28T07:27:57.980Z,9.03
2019-04-28T07:30:27.940Z,12.87
2019-04-28T07:32:57.297Z,9.23
2019-04-28T07:35:26.648Z,10.55
2019-04-28T07:37:56.016Z,11.12
2019-04-28T07:40:25.371Z,10.15
2019-04-28T07:42:54.729Z,9.90
2019-04-28T07:45:24.128Z,11.53
2019-04-28T07:47:53.574Z,12.23
2019-04-28T07:50:22.951Z,16.23
2019-04-28T07:52:54.183Z,17.90
2019-04-28T07:55:24.813Z,20.10
2019-04-28T07:57:54.179Z,17.05
2019-04-28T08:00:25.180Z,17.90
2019-04-28T08:02:54.661Z,21.93
2019-04-28T08:05:24.049Z,20.50
2019-04-28T08:07:55.002Z,14.07
2019-04-28T08:10:27.461Z,15.30
2019-04-28T08:12:56.539Z,14.60
2019-04-28T08:15:25.961Z,11.30
2019-04-28T08:17:58.517Z,11.50
2019-04-28T08:20:27.861Z,14.50
2019-04-28T08:22:57.407Z,17.62
2019-04-28T08:25:26.830Z,14.20
2019-04-28T08:27:57.095Z,19.60
2019-04-28T08:30:26.813Z,15.18
2019-04-28T08:33:00.822Z,15.88
2019-04-28T08:35:30.247Z,15.90
2019-04-28T08:37:59.620Z,16.05
2019-04-28T08:40:30.533Z,16.70
2019-04-28T08:42:59.973Z,15.70
2019-04-28T08:45:31.002Z,16.57
2019-04-28T08:48:00.368Z,17.77
2019-04-28T08:50:30.523Z,13.68
2019-04-28T08:52:59.955Z,18.12
2019-04-28T08:55:29.406Z,15.48
2019-04-28T08:57:58.789Z,16.52
2019-04-28T09:00:28.299Z,15.68
2019-04-28T09:02:59.148Z,18.27
2019-04-28T09:05:28.551Z,14.40
2019-04-28T09:07:57.951Z,15.70
2019-04-28T09:10:28.756Z,17.73
2019-04-28T09:12:58.156Z,18.00
2019-04-28T09:15:27.601Z,15.15
2019-04-28T09:17:57.045Z,18.00
2019-04-28T09:20:26.502Z,20.57
2019-04-28T09:22:55.999Z,17.90
2019-04-28T09:25:27.178Z,16.90
2019-04-28T09:27:56.752Z,16.50
2019-04-28T09:30:26.225Z,14.65
2019-04-28T09:32:55.608Z,16.20
2019-04-28T09:35:24.970Z,13.65
2019-04-28T09:37:55.518Z,13.05
2019-04-28T09:40:25.029Z,14.83
2019-04-28T09:43:02.024Z,12.67
2019-04-28T09:45:33.000Z,11.95
2019-04-28T09:48:02.390Z,12.23
2019-04-28T09:50:51.140Z,11.97
2019-04-28T09:53:20.600Z,8.53
2019-04-28T09:55:50.037Z,10.80
2019-04-28T09:58:19.402Z,11.30
2019-04-28T10:00:48.827Z,15.72
2019-04-28T10:03:18.229Z,20.27
2019-04-28T10:05:47.726Z,20.12
2019-04-28T10:08:17.098Z,16.50
2019-04-28T10:10:46.572Z,14.58
2019-04-28T10:13:16.025Z,15.32
2019-04-28T10:15:45.464Z,14.45
2019-04-28T10:18:14.834Z,14.17
2019-04-28T10:20:44.245Z,15.43
2019-04-28T10:23:13.637Z,19.23
2019-04-28T10:25:43.290Z,15.63
2019-04-28T10:28:13.105Z,15.93
2019-04-28T10:30:42.527Z,18.62
2019-04-28T10:33:11.880Z,16.95
2019-04-28T10:35:41.264Z,18.40
2019-04-28T10:38:11.120Z,18.60
2019-04-28T10:40:58.026Z,20.08
2019-04-28T10:43:27.583Z,12.58
2019-04-28T10:45:59.846Z,22.55
2019-04-28T10:48:29.366Z,11.43
2019-04-28T10:51:01.299Z,12.80
2019-04-28T10:53:30.731Z,17.90
2019-04-28T10:56:00.092Z,13.55
2019-04-28T10:58:30.985Z,11.97
2019-04-28T11:01:00.469Z,12.73
2019-04-28T11:03:29.882Z,13.78
2019-04-28T11:05:59.327Z,15.78
2019-04-28T11:08:46.440Z,14.78
2019-04-28T11:11:17.588Z,18.20
2019-04-28T11:13:46.992Z,15.57
2019-04-28T11:16:18.085Z,14.73
2019-04-28T11:18:47.456Z,14.90
2019-04-28T11:21:16.518Z,14.33
2019-04-28T11:23:47.079Z,17.23
2019-04-28T11:26:16.503Z,17.53
2019-04-28T11:28:45.890Z,15.00
2019-04-28T11:31:15.436Z,13.98
2019-04-28T11:34:06.226Z,13.83
2019-04-28T11:36:35.640Z,13.28
2019-04-28T11:39:09.102Z,14.43
2019-04-28T11:41:40.077Z,16.20
2019-04-28T11:44:09.567Z,16.82
2019-04-28T11:46:38.929Z,21.42
2019-04-28T11:49:08.419Z,14.43
2019-04-28T11:51:40.135Z,14.18
2019-04-28T11:54:09.574Z,13.55
2019-04-28T11:56:41.782Z,14.98
2019-04-28T11:59:10.085Z,13.87
2019-04-28T12:01:39.472Z,12.45
2019-04-28T12:04:10.465Z,13.50
2019-04-28T12:06:41.695Z,12.03
2019-04-28T12:09:30.902Z,14.90
2019-04-28T12:12:11.014Z,11.03
2019-04-28T12:14:54.082Z,12.05
2019-04-28T12:17:31.143Z,11.68
2019-04-28T12:20:02.221Z,15.58
2019-04-28T12:22:31.757Z,13.20
2019-04-28T12:25:01.090Z,11.40
2019-04-28T12:27:30.456Z,12.25
2019-04-28T12:29:59.860Z,11.38
2019-04-28T12:32:29.209Z,10.30
2019-04-28T12:34:58.742Z,15.40
2019-04-28T12:37:28.124Z,11.67
2019-04-28T12:39:57.512Z,9.58
2019-04-28T12:42:26.930Z,13.25
2019-04-28T12:44:56.290Z,15.88
2019-04-28T12:47:27.196Z,12.15
2019-04-28T12:50:00.768Z,12.45
2019-04-28T12:52:30.272Z,10.60
2019-04-28T12:55:00.669Z,12.90
2019-04-28T12:57:30.120Z,9.98
2019-04-28T13:00:01.123Z,11.28
2019-04-28T13:05:19.274Z,10.10
2019-04-28T13:07:48.636Z,8.78
2019-04-28T13:10:18.141Z,10.90
2019-04-28T13:12:47.593Z,11.45
2019-04-28T13:15:17.071Z,11.85
2019-04-28T13:17:46.502Z,8.43
2019-04-28T13:20:18.782Z,10.15
2019-04-28T13:22:48.158Z,15.43
2019-04-28T13:25:17.805Z,12.50
2019-04-28T13:27:47.143Z,9.70
2019-04-28T13:30:16.558Z,9.27
2019-04-28T13:32:45.967Z,11.00
2019-04-28T13:35:16.101Z,9.00
2019-04-28T13:37:46.472Z,10.43
2019-04-28T13:40:20.835Z,11.83
2019-04-28T13:42:50.354Z,10.60
2019-04-28T13:45:21.427Z,9.95
2019-04-28T13:47:50.769Z,9.47
2019-04-28T13:50:26.201Z,7.55
2019-04-28T13:52:55.552Z,9.00
2019-04-28T13:55:26.680Z,7.45
2019-04-28T13:57:57.948Z,8.73
2019-04-28T14:03:30.712Z,8.50
2019-04-28T14:06:01.724Z,7.72
2019-04-28T14:08:31.168Z,9.73
2019-04-28T14:11:00.586Z,9.60
2019-04-28T14:13:30.564Z,7.90
2019-04-28T14:16:00.013Z,7.65
2019-04-28T14:18:29.481Z,6.37
2019-04-28T14:20:59.933Z,11.10
2019-04-28T14:23:29.384Z,7.28
2019-04-28T14:25:59.113Z,6.85
2019-04-28T14:28:30.057Z,7.00
2019-04-28T14:30:59.610Z,5.50
2019-04-28T14:33:29.186Z,5.85
2019-04-28T14:36:06.278Z,5.20
2019-04-28T14:38:35.644Z,5.60
2019-04-28T14:41:05.794Z,7.33
2019-04-28T14:43:35.181Z,4.62
2019-04-28T14:46:04.665Z,5.50
2019-04-28T14:48:35.632Z,5.17
2019-04-28T14:51:06.030Z,5.47
2019-04-28T14:53:35.516Z,9.20
2019-04-28T14:56:08.177Z,7.33
2019-04-28T14:58:37.602Z,7.33
2019-04-28T15:01:13.806Z,6.50
2019-04-28T15:03:44.815Z,7.45
2019-04-28T15:06:18.739Z,9.87
2019-04-28T15:08:56.003Z,6.72
2019-04-28T15:11:29.541Z,9.95
2019-04-28T15:13:59.031Z,14.75
2019-04-28T15:16:28.505Z,10.40
2019-04-28T15:18:57.867Z,10.72
2019-04-28T15:21:27.312Z,7.65
2019-04-28T15:23:57.879Z,8.28
2019-04-28T15:26:27.248Z,9.10
2019-04-28T15:28:56.695Z,7.70
2019-04-28T15:31:26.178Z,9.60
2019-04-28T15:33:55.682Z,17.77
2019-04-28T15:36:25.200Z,9.78
2019-04-28T15:38:54.553Z,13.43
2019-04-28T15:41:23.950Z,7.83
2019-04-28T15:43:53.339Z,8.25
2019-04-28T15:46:27.221Z,7.83
2019-04-28T15:48:56.708Z,8.98
2019-04-28T15:51:28.557Z,8.45
2019-04-28T15:54:01.145Z,9.85
2019-04-28T15:56:32.270Z,10.60
2019-04-28T15:59:01.625Z,11.80
2019-04-28T16:01:31.036Z,9.18
2019-04-28T16:04:00.434Z,11.65
2019-04-28T16:06:29.803Z,12.43
2019-04-28T16:08:59.222Z,14.13
2019-04-28T16:11:29.121Z,12.28
2019-04-28T16:13:58.636Z,12.37
2019-04-28T16:16:28.131Z,11.10
2019-04-28T16:18:57.557Z,10.60
2019-04-28T16:21:26.995Z,12.18
2019-04-28T16:23:56.355Z,11.83
2019-04-28T16:26:25.750Z,10.00
2019-04-28T16:28:55.133Z,12.33
2019-04-28T16:31:26.929Z,11.25
2019-04-28T16:33:56.347Z,12.37
2019-04-28T16:36:25.712Z,10.63
2019-04-28T16:38:55.118Z,13.65
2019-04-28T16:41:27.928Z,9.30
2019-04-28T16:44:02.457Z,9.65
2019-04-28T16:46:31.819Z,9.48
2019-04-28T16:49:01.163Z,9.78
2019-04-28T16:51:30.563Z,15.98
2019-04-28T16:54:00.015Z,17.35
2019-04-28T16:56:33.657Z,12.05
2019-04-28T16:59:19.826Z,16.10
2019-04-28T17:01:54.000Z,15.58
2019-04-28T17:04:23.370Z,14.10
2019-04-28T17:06:52.728Z,10.65
2019-04-28T17:09:25.458Z,12.43
2019-04-28T17:11:54.819Z,11.05
2019-04-28T17:14:26.601Z,11.10
2019-04-28T17:16:55.950Z,12.50
2019-04-28T17:19:25.396Z,11.48
2019-04-28T17:21:54.814Z,10.90
2019-04-28T17:24:24.176Z,10.53
2019-04-28T17:26:53.803Z,10.40
2019-04-28T17:29:23.310Z,11.07
2019-04-28T17:31:52.771Z,10.40
2019-04-28T17:34:22.337Z,10.10
2019-04-28T17:36:51.709Z,11.38
2019-04-28T17:39:22.426Z,11.10
2019-04-28T17:41:51.850Z,11.33
2019-04-28T17:44:21.325Z,15.23
2019-04-28T17:46:51.103Z,19.82
2019-04-28T17:49:22.111Z,14.60
2019-04-28T17:51:51.569Z,13.83
2019-04-28T17:54:21.007Z,12.20
2019-04-28T17:56:50.375Z,13.38
2019-04-28T17:59:19.791Z,13.40
2019-04-28T18:01:59.687Z,12.07
2019-04-28T18:04:39.680Z,11.10
2019-04-28T18:07:18.011Z,9.05
2019-04-28T18:09:47.660Z,14.50
2019-04-28T18:12:17.082Z,9.30
2019-04-28T18:14:48.165Z,10.00
2019-04-28T18:17:35.253Z,10.33
2019-04-28T18:20:07.688Z,9.20
2019-04-28T18:22:37.293Z,11.45
2019-04-28T18:25:07.457Z,65.20
2019-04-28T18:27:36.830Z,30.20
2019-04-28T18:30:07.606Z,23.85
2019-04-28T18:32:54.871Z,12.37
2019-04-28T18:35:34.639Z,11.03
2019-04-28T18:38:11.732Z,12.50
2019-04-28T18:40:46.851Z,15.10
2019-04-28T18:43:17.946Z,13.17
2019-04-28T18:45:47.452Z,11.10
2019-04-28T18:48:16.797Z,12.10
2019-04-28T18:50:46.185Z,11.50
2019-04-28T18:53:15.547Z,10.88
2019-04-28T18:55:44.914Z,10.28
2019-04-28T18:58:14.276Z,10.72
2019-04-28T19:00:45.358Z,10.58
2019-04-28T19:03:14.784Z,13.20
2019-04-28T19:05:45.806Z,11.12
2019-04-28T19:08:18.429Z,11.10
2019-04-28T19:10:58.214Z,12.50
2019-04-28T19:13:29.294Z,12.23
2019-04-28T19:16:02.924Z,13.53
2019-04-28T19:18:39.739Z,14.33
2019-04-28T19:21:10.322Z,13.32
2019-04-28T19:23:39.848Z,15.95
2019-04-28T19:26:09.419Z,13.95
2019-04-28T19:28:38.964Z,13.32
2019-04-28T19:31:08.421Z,13.20
2019-04-28T19:33:37.987Z,13.62
2019-04-28T19:36:07.451Z,15.93
2019-04-28T19:38:36.873Z,13.48
2019-04-28T19:41:06.233Z,15.90
2019-04-28T19:43:35.783Z,15.85
2019-04-28T19:46:07.863Z,16.48
2019-04-28T19:48:38.272Z,13.22
2019-04-28T19:51:07.737Z,15.55
2019-04-28T19:53:37.167Z,19.65
2019-04-28T19:56:23.187Z,16.25
2019-04-28T19:59:10.621Z,15.48
2019-04-28T20:01:40.122Z,23.38
2019-04-28T20:04:09.691Z,24.60
2019-04-28T20:06:40.332Z,22.15
2019-04-28T20:09:09.655Z,23.38
2019-04-28T20:11:40.760Z,20.68
2019-04-28T20:14:10.156Z,22.00
2019-04-28T20:16:39.652Z,20.15
2019-04-28T20:19:09.178Z,24.27
2019-04-28T20:21:38.755Z,22.60
2019-04-28T20:24:09.300Z,21.23
2019-04-28T20:26:38.653Z,20.02
2019-04-28T20:29:08.260Z,25.65
2019-04-28T20:31:37.764Z,22.02
2019-04-28T20:34:07.188Z,20.70
2019-04-28T20:36:44.159Z,22.07
2019-04-28T20:39:18.023Z,24.00
2019-04-28T20:41:48.058Z,31.75
2019-04-28T20:44:17.495Z,26.60
2019-04-28T20:46:46.863Z,26.25
2019-04-28T20:49:19.106Z,27.93
2019-04-28T20:51:48.468Z,27.25
2019-04-28T20:54:17.832Z,24.15
2019-04-28T20:56:47.208Z,23.80
2019-04-28T20:59:16.630Z,27.13
2019-04-28T21:01:46.123Z,24.20
2019-04-28T21:04:17.238Z,25.40
2019-04-28T21:06:46.752Z,21.93
2019-04-28T21:09:16.196Z,20.05
2019-04-28T21:11:45.581Z,22.50
2019-04-28T21:14:14.967Z,23.90
2019-04-28T21:16:44.308Z,22.17
2019-04-28T21:19:13.660Z,27.27
2019-04-28T21:21:43.024Z,27.67
2019-04-28T21:24:16.712Z,23.07
2019-04-28T21:26:45.056Z,23.65
2019-04-28T21:29:14.447Z,24.65
2019-04-28T21:31:43.807Z,24.20
2019-04-28T21:34:13.160Z,23.98
2019-04-28T21:36:42.593Z,24.63
2019-04-28T21:39:11.940Z,23.40
2019-04-28T21:41:41.283Z,22.42
2019-04-28T21:44:18.055Z,23.20
2019-04-28T21:46:51.539Z,24.12
2019-04-28T21:49:25.120Z,22.58
2019-04-28T21:51:54.549Z,23.25
2019-04-28T21:54:23.979Z,22.63
2019-04-28T21:56:53.403Z,24.40
2019-04-28T21:59:22.738Z,24.52
2019-04-28T22:01:52.110Z,29.20
2019-04-28T22:04:22.597Z,23.37
2019-04-28T22:06:52.011Z,26.57
2019-04-28T22:09:21.371Z,25.62
2019-04-28T22:11:50.743Z,24.43
2019-04-28T22:14:20.109Z,24.02
2019-04-28T22:16:49.450Z,25.35
2019-04-28T22:19:18.827Z,24.18
2019-04-28T22:21:48.188Z,21.73
2019-04-28T22:24:19.209Z,24.50
2019-04-28T22:26:50.050Z,19.17
2019-04-28T22:29:19.406Z,22.10
2019-04-28T22:31:48.824Z,20.27
2019-04-28T22:34:20.595Z,23.18
2019-04-28T22:36:49.977Z,23.47
2019-04-28T22:39:19.367Z,22.17
2019-04-28T22:41:48.794Z,25.15
2019-04-28T22:44:18.244Z,26.47
2019-04-28T22:46:49.178Z,28.02
2019-04-28T22:49:18.548Z,27.63
2019-04-28T22:51:47.894Z,26.23
2019-04-28T22:54:24.415Z,27.48
2019-04-28T22:56:55.416Z,22.80
2019-04-28T22:59:26.443Z,24.63
2019-04-28T23:01:58.975Z,24.50
2019-04-28T23:04:32.538Z,30.35
2019-04-28T23:07:02.054Z,26.40
2019-04-28T23:09:31.657Z,26.42
2019-04-28T23:12:01.030Z,25.35
2019-04-28T23:14:30.443Z,25.60
2019-04-28T23:16:59.927Z,24.67
2019-04-28T23:19:32.087Z,31.20
2019-04-28T23:22:03.064Z,22.47
2019-04-28T23:24:34.422Z,25.48
2019-04-28T23:27:03.494Z,24.98
2019-04-28T23:29:32.934Z,27.20
2019-04-28T23:32:02.306Z,27.67
2019-04-28T23:34:31.754Z,24.27
2019-04-28T23:37:01.092Z,24.05
2019-04-28T23:39:32.089Z,23.98
2019-04-28T23:42:03.108Z,21.05
2019-04-28T23:44:32.460Z,26.03
2019-04-28T23:47:02.527Z,23.85
2019-04-28T23:49:31.977Z,23.18
2019-04-28T23:52:14.682Z,25.32
2019-04-28T23:54:49.575Z,25.30
2019-04-28T23:57:18.935Z,28.05
2019-04-28T23:59:48.278Z,23.77
